On a recent short business trip, I finally got an opportunity to take-off from runway 33 out of KLIA (WMKK/KUL) which serves the KLIA2 terminal. It was quite a busy morning with a number of low-cost carrier planes queuing for take off.



Weather on take-off:
METAR WMKK 122300Z VRB02KT 9999 FEW030 SCT140 BKN280 25/23 Q1009 NOSIG RMK F05 P00.0 R87 HZ A/R

From the track logs downloaded from FlightRadar24, here's my guess of the flight plan:

WMKK AGOSA1F AGOSA A457 VPG DCT RIGTO M769 DCT DANDO DCT EKAVO M626 DWI M626 POXEM POXEM1E VYYY


Weather on arrival (a bit old, VYYY seems to issue METARs every 2 hours. The low cloud layer seems to have thickened a lot):

METAR VYYY 130030Z 06004KT 6000 R21/2000N FEW020 SCT120 25/25 Q1009=